sensor_id;sensor_type;location;lat;lon;timestamp;pressure;altitude;pressure_sealevel;temperature
70668;BMP280;58242;51.250;-1.118;2023-10-31T00:00:15;98454.28;;;13.77
70668;BMP280;58242;51.250;-1.118;2023-10-31T00:02:40;98455.41;;;13.76
70668;BMP280;58242;51.250;-1.118;2023-10-31T00:05:06;98454.66;;;13.76
70668;BMP280;58242;51.250;-1.118;2023-10-31T00:07:31;98454.28;;;13.77
70668;BMP280;58242;51.250;-1.118;2023-10-31T00:09:56;98454.28;;;13.77
70668;BMP280;58242;51.250;-1.118;2023-10-31T00:12:22;98458.09;;;13.76
70668;BMP280;58242;51.250;-1.118;2023-10-31T00:14:47;98453.50;;;13.77
70668;BMP280;58242;51.250;-1.118;2023-10-31T00:17:12;98457.72;;;13.78
70668;BMP280;58242;51.250;-1.118;2023-10-31T00:19:38;98462.34;;;13.77
70668;BMP280;58242;51.250;-1.118;2023-10-31T00:22:03;98457.72;;;13.78
70668;BMP280;58242;51.250;-1.118;2023-10-31T00:24:29;98460.41;;;13.78
70668;BMP280;58242;51.250;-1.118;2023-10-31T00:26:54;98459.66;;;13.77
70668;BMP280;58242;51.250;-1.118;2023-10-31T00:29:19;98459.66;;;13.77
70668;BMP280;58242;51.250;-1.118;2023-10-31T00:31:44;98458.50;;;13.78
70668;BMP280;58242;51.250;-1.118;2023-10-31T00:34:10;98461.19;;;13.78
70668;BMP280;58242;51.250;-1.118;2023-10-31T00:36:35;98460.06;;;13.79
70668;BMP280;58242;51.250;-1.118;2023-10-31T00:39:01;98461.59;;;13.80
70668;BMP280;58242;51.250;-1.118;2023-10-31T00:41:26;98462.38;;;13.84
70668;BMP280;58242;51.250;-1.118;2023-10-31T00:43:51;98464.28;;;13.87
70668;BMP280;58242;51.250;-1.118;2023-10-31T00:46:16;98466.59;;;13.88
70668;BMP280;58242;51.250;-1.118;2023-10-31T00:48:42;98463.16;;;13.91
70668;BMP280;58242;51.250;-1.118;2023-10-31T00:51:07;98455.84;;;13.92
70668;BMP280;58242;51.250;-1.118;2023-10-31T00:53:32;98458.53;;;13.95
70668;BMP280;58242;51.250;-1.118;2023-10-31T00:55:58;98455.84;;;13.95
70668;BMP280;58242;51.250;-1.118;2023-10-31T00:58:23;98455.09;;;13.95
70668;BMP280;58242;51.250;-1.118;2023-10-31T01:00:49;98465.84;;;13.95
70668;BMP280;58242;51.250;-1.118;2023-10-31T01:03:14;98461.63;;;13.94
70668;BMP280;58242;51.250;-1.118;2023-10-31T01:05:39;98458.19;;;13.93
70668;BMP280;58242;51.250;-1.118;2023-10-31T01:08:05;98454.31;;;13.91
70668;BMP280;58242;51.250;-1.118;2023-10-31T01:10:30;98448.56;;;13.89
70668;BMP280;58242;51.250;-1.118;2023-10-31T01:12:55;98452.41;;;13.88
70668;BMP280;58242;51.250;-1.118;2023-10-31T01:15:21;98448.16;;;13.87
70668;BMP280;58242;51.250;-1.118;2023-10-31T01:17:46;98456.63;;;13.86
70668;BMP280;58242;51.250;-1.118;2023-10-31T01:20:11;98453.16;;;13.85
70668;BMP280;58242;51.250;-1.118;2023-10-31T01:22:37;98455.84;;;13.85
70668;BMP280;58242;51.250;-1.118;2023-10-31T01:25:02;98455.09;;;13.85
70668;BMP280;58242;51.250;-1.118;2023-10-31T01:27:28;98450.47;;;13.85
70668;BMP280;58242;51.250;-1.118;2023-10-31T01:29:53;98453.53;;;13.87
70668;BMP280;58242;51.250;-1.118;2023-10-31T01:32:19;98452.41;;;13.88
70668;BMP280;58242;51.250;-1.118;2023-10-31T01:34:44;98456.63;;;13.89
70668;BMP280;58242;51.250;-1.118;2023-10-31T01:37:09;98456.63;;;13.89
70668;BMP280;58242;51.250;-1.118;2023-10-31T01:39:38;98463.91;;;13.92
70668;BMP280;58242;51.250;-1.118;2023-10-31T01:42:03;98470.47;;;13.94
70668;BMP280;58242;51.250;-1.118;2023-10-31T01:44:28;98466.59;;;13.99
70668;BMP280;58242;51.250;-1.118;2023-10-31T01:46:54;98468.91;;;14.03
70668;BMP280;58242;51.250;-1.118;2023-10-31T01:49:20;98478.53;;;14.11
70668;BMP280;58242;51.250;-1.118;2023-10-31T01:51:45;98479.66;;;14.17
70668;BMP280;58242;51.250;-1.118;2023-10-31T01:54:12;98483.91;;;14.25
70668;BMP280;58242;51.250;-1.118;2023-10-31T01:56:37;98475.84;;;14.32
70668;BMP280;58242;51.250;-1.118;2023-10-31T01:59:05;98469.34;;;14.39
70668;BMP280;58242;51.250;-1.118;2023-10-31T02:01:32;98480.84;;;14.47
70668;BMP280;58242;51.250;-1.118;2023-10-31T02:03:57;98471.22;;;14.53
70668;BMP280;58242;51.250;-1.118;2023-10-31T02:06:23;98479.28;;;14.56
70668;BMP280;58242;51.250;-1.118;2023-10-31T02:08:49;98479.28;;;14.59
70668;BMP280;58242;51.250;-1.118;2023-10-31T02:11:14;98476.59;;;14.63
70668;BMP280;58242;51.250;-1.118;2023-10-31T02:13:39;98486.59;;;14.66
70668;BMP280;58242;51.250;-1.118;2023-10-31T02:16:05;98481.97;;;14.70
70668;BMP280;58242;51.250;-1.118;2023-10-31T02:18:31;98493.50;;;14.73
70668;BMP280;58242;51.250;-1.118;2023-10-31T02:20:56;98494.22;;;14.77
70668;BMP280;58242;51.250;-1.118;2023-10-31T02:23:21;98488.47;;;14.82
70668;BMP280;58242;51.250;-1.118;2023-10-31T02:25:47;98488.09;;;14.87
70668;BMP280;58242;51.250;-1.118;2023-10-31T02:28:12;98495.03;;;14.91
70668;BMP280;58242;51.250;-1.118;2023-10-31T02:30:37;98495.03;;;14.95
70668;BMP280;58242;51.250;-1.118;2023-10-31T02:33:03;98500.75;;;15.00
70668;BMP280;58242;51.250;-1.118;2023-10-31T02:35:28;98496.13;;;15.04
70668;BMP280;58242;51.250;-1.118;2023-10-31T02:37:53;98491.13;;;15.09
70668;BMP280;58242;51.250;-1.118;2023-10-31T02:40:19;98496.13;;;15.14
70668;BMP280;58242;51.250;-1.118;2023-10-31T02:42:44;98496.47;;;15.20
70668;BMP280;58242;51.250;-1.118;2023-10-31T02:45:10;98501.84;;;15.23
70668;BMP280;58242;51.250;-1.118;2023-10-31T02:47:35;98498.00;;;15.27
70668;BMP280;58242;51.250;-1.118;2023-10-31T02:50:01;98487.22;;;15.31
70668;BMP280;58242;51.250;-1.118;2023-10-31T02:52:26;98485.69;;;15.33
70668;BMP280;58242;51.250;-1.118;2023-10-31T02:54:51;98488.34;;;15.37
70668;BMP280;58242;51.250;-1.118;2023-10-31T02:57:17;98480.25;;;15.40
70668;BMP280;58242;51.250;-1.118;2023-10-31T02:59:42;98484.09;;;15.42
70668;BMP280;58242;51.250;-1.118;2023-10-31T03:02:07;98485.25;;;15.45
70668;BMP280;58242;51.250;-1.118;2023-10-31T03:04:33;98473.69;;;15.48
70668;BMP280;58242;51.250;-1.118;2023-10-31T03:06:58;98475.97;;;15.49
70668;BMP280;58242;51.250;-1.118;2023-10-31T03:09:23;98470.22;;;15.51
70668;BMP280;58242;51.250;-1.118;2023-10-31T03:11:49;98460.22;;;15.51
70668;BMP280;58242;51.250;-1.118;2023-10-31T03:14:14;98461.75;;;15.52
70668;BMP280;58242;51.250;-1.118;2023-10-31T03:16:39;98452.91;;;15.52
70668;BMP280;58242;51.250;-1.118;2023-10-31T03:19:05;98456.38;;;15.52
70668;BMP280;58242;51.250;-1.118;2023-10-31T03:21:30;98451.75;;;15.53
70668;BMP280;58242;51.250;-1.118;2023-10-31T03:23:57;98452.50;;;15.53
70668;BMP280;58242;51.250;-1.118;2023-10-31T03:26:23;98445.59;;;15.52
70668;BMP280;58242;51.250;-1.118;2023-10-31T03:28:48;98448.66;;;15.51
70668;BMP280;58242;51.250;-1.118;2023-10-31T03:31:14;98455.97;;;15.50
70668;BMP280;58242;51.250;-1.118;2023-10-31T03:33:40;98450.22;;;15.48
70668;BMP280;58242;51.250;-1.118;2023-10-31T03:36:06;98455.63;;;15.45
70668;BMP280;58242;51.250;-1.118;2023-10-31T03:38:32;98461.03;;;15.38
70668;BMP280;58242;51.250;-1.118;2023-10-31T03:40:57;98469.13;;;15.31
70668;BMP280;58242;51.250;-1.118;2023-10-31T03:43:22;98470.31;;;15.23
70668;BMP280;58242;51.250;-1.118;2023-10-31T03:45:48;98470.72;;;15.15
70668;BMP280;58242;51.250;-1.118;2023-10-31T03:48:13;98470.00;;;15.08
70668;BMP280;58242;51.250;-1.118;2023-10-31T03:50:39;98475.03;;;14.99
70668;BMP280;58242;51.250;-1.118;2023-10-31T03:53:04;98468.91;;;14.92
70668;BMP280;58242;51.250;-1.118;2023-10-31T03:55:29;98471.19;;;14.83
70668;BMP280;58242;51.250;-1.118;2023-10-31T03:57:58;98478.88;;;14.74
70668;BMP280;58242;51.250;-1.118;2023-10-31T04:00:23;98478.53;;;14.69
70668;BMP280;58242;51.250;-1.118;2023-10-31T04:02:49;98483.50;;;14.64
70668;BMP280;58242;51.250;-1.118;2023-10-31T04:05:14;98492.34;;;14.57
70668;BMP280;58242;51.250;-1.118;2023-10-31T04:07:39;98489.69;;;14.54
70668;BMP280;58242;51.250;-1.118;2023-10-31T04:10:05;98502.72;;;14.52
70668;BMP280;58242;51.250;-1.118;2023-10-31T04:12:31;98502.72;;;14.49
70668;BMP280;58242;51.250;-1.118;2023-10-31T04:14:57;98497.72;;;14.47
70668;BMP280;58242;51.250;-1.118;2023-10-31T04:17:22;98507.31;;;14.48
70668;BMP280;58242;51.250;-1.118;2023-10-31T04:19:47;98515.41;;;14.48
70668;BMP280;58242;51.250;-1.118;2023-10-31T04:22:13;98508.47;;;14.47
70668;BMP280;58242;51.250;-1.118;2023-10-31T04:24:38;98499.25;;;14.48
70668;BMP280;58242;51.250;-1.118;2023-10-31T04:27:03;98500.81;;;14.49
70668;BMP280;58242;51.250;-1.118;2023-10-31T04:29:29;98502.34;;;14.50
70668;BMP280;58242;51.250;-1.118;2023-10-31T04:31:54;98511.56;;;14.53
70668;BMP280;58242;51.250;-1.118;2023-10-31T04:34:19;98517.34;;;14.54
70668;BMP280;58242;51.250;-1.118;2023-10-31T04:36:45;98508.09;;;14.55
70668;BMP280;58242;51.250;-1.118;2023-10-31T04:39:10;98520.38;;;14.56
70668;BMP280;58242;51.250;-1.118;2023-10-31T04:41:36;98520.00;;;14.58
70668;BMP280;58242;51.250;-1.118;2023-10-31T04:44:01;98525.38;;;14.61
70668;BMP280;58242;51.250;-1.118;2023-10-31T04:46:26;98520.38;;;14.63
70668;BMP280;58242;51.250;-1.118;2023-10-31T04:48:52;98524.25;;;14.66
70668;BMP280;58242;51.250;-1.118;2023-10-31T04:51:18;98523.06;;;14.67
70668;BMP280;58242;51.250;-1.118;2023-10-31T04:53:44;98527.28;;;14.68
70668;BMP280;58242;51.250;-1.118;2023-10-31T04:56:13;98523.84;;;14.67
70668;BMP280;58242;51.250;-1.118;2023-10-31T04:58:42;98527.28;;;14.68
70668;BMP280;58242;51.250;-1.118;2023-10-31T05:01:13;98525.00;;;14.70
70668;BMP280;58242;51.250;-1.118;2023-10-31T05:03:39;98529.63;;;14.69
70668;BMP280;58242;51.250;-1.118;2023-10-31T05:06:05;98529.97;;;14.71
70668;BMP280;58242;51.250;-1.118;2023-10-31T05:08:31;98538.44;;;14.73
70668;BMP280;58242;51.250;-1.118;2023-10-31T05:10:58;98531.53;;;14.75
70668;BMP280;58242;51.250;-1.118;2023-10-31T05:13:23;98519.22;;;14.78
70668;BMP280;58242;51.250;-1.118;2023-10-31T05:15:49;98521.91;;;14.81
70668;BMP280;58242;51.250;-1.118;2023-10-31T05:18:15;98512.69;;;14.82
70668;BMP280;58242;51.250;-1.118;2023-10-31T05:20:40;98516.91;;;14.83
70668;BMP280;58242;51.250;-1.118;2023-10-31T05:23:06;98515.38;;;14.82
70668;BMP280;58242;51.250;-1.118;2023-10-31T05:25:32;98520.75;;;14.82
70668;BMP280;58242;51.250;-1.118;2023-10-31T05:27:57;98523.06;;;14.80
70668;BMP280;58242;51.250;-1.118;2023-10-31T05:30:22;98521.53;;;14.79
70668;BMP280;58242;51.250;-1.118;2023-10-31T05:32:49;98515.75;;;14.77
70668;BMP280;58242;51.250;-1.118;2023-10-31T05:35:15;98521.53;;;14.76
70668;BMP280;58242;51.250;-1.118;2023-10-31T05:37:40;98522.69;;;14.75
70668;BMP280;58242;51.250;-1.118;2023-10-31T05:40:06;98533.44;;;14.75
70668;BMP280;58242;51.250;-1.118;2023-10-31T05:42:31;98522.31;;;14.73
70668;BMP280;58242;51.250;-1.118;2023-10-31T05:44:56;98523.84;;;14.71
70668;BMP280;58242;51.250;-1.118;2023-10-31T05:47:22;98535.75;;;14.70
70668;BMP280;58242;51.250;-1.118;2023-10-31T05:49:47;98527.28;;;14.68
70668;BMP280;58242;51.250;-1.118;2023-10-31T05:52:13;98524.63;;;14.64
70668;BMP280;58242;51.250;-1.118;2023-10-31T05:54:38;98519.59;;;14.63
70668;BMP280;58242;51.250;-1.118;2023-10-31T05:57:04;98525.00;;;14.59
70668;BMP280;58242;51.250;-1.118;2023-10-31T05:59:29;98531.53;;;14.58
70668;BMP280;58242;51.250;-1.118;2023-10-31T06:01:55;98535.75;;;14.56
70668;BMP280;58242;51.250;-1.118;2023-10-31T06:04:20;98534.59;;;14.54
70668;BMP280;58242;51.250;-1.118;2023-10-31T06:06:46;98540.34;;;14.52
70668;BMP280;58242;51.250;-1.118;2023-10-31T06:09:11;98534.22;;;14.48
70668;BMP280;58242;51.250;-1.118;2023-10-31T06:11:40;98531.94;;;14.47
70668;BMP280;58242;51.250;-1.118;2023-10-31T06:14:06;98529.25;;;14.43
70668;BMP280;58242;51.250;-1.118;2023-10-31T06:16:31;98526.53;;;14.40
70668;BMP280;58242;51.250;-1.118;2023-10-31T06:18:56;98535.34;;;14.37
70668;BMP280;58242;51.250;-1.118;2023-10-31T06:21:22;98544.97;;;14.35
70668;BMP280;58242;51.250;-1.118;2023-10-31T06:23:47;98544.19;;;14.31
70668;BMP280;58242;51.250;-1.118;2023-10-31T06:26:12;98540.72;;;14.27
70668;BMP280;58242;51.250;-1.118;2023-10-31T06:28:37;98544.97;;;14.24
70668;BMP280;58242;51.250;-1.118;2023-10-31T06:31:05;98540.31;;;14.21
70668;BMP280;58242;51.250;-1.118;2023-10-31T06:33:30;98551.06;;;14.18
70668;BMP280;58242;51.250;-1.118;2023-10-31T06:35:55;98544.91;;;14.14
70668;BMP280;58242;51.250;-1.118;2023-10-31T06:38:21;98549.53;;;14.10
70668;BMP280;58242;51.250;-1.118;2023-10-31T06:40:46;98549.91;;;14.09
70668;BMP280;58242;51.250;-1.118;2023-10-31T06:43:11;98560.66;;;14.05
70668;BMP280;58242;51.250;-1.118;2023-10-31T06:45:37;98562.16;;;14.03
70668;BMP280;58242;51.250;-1.118;2023-10-31T06:48:02;98574.47;;;14.01
70668;BMP280;58242;51.250;-1.118;2023-10-31T06:50:28;98590.16;;;13.99
70668;BMP280;58242;51.250;-1.118;2023-10-31T06:52:54;98589.78;;;13.97
70668;BMP280;58242;51.250;-1.118;2023-10-31T06:55:19;98592.47;;;13.97
70668;BMP280;58242;51.250;-1.118;2023-10-31T06:57:44;98602.81;;;13.95
70668;BMP280;58242;51.250;-1.118;2023-10-31T07:00:11;98608.97;;;13.95
70668;BMP280;58242;51.250;-1.118;2023-10-31T07:02:37;98617.78;;;13.96
70668;BMP280;58242;51.250;-1.118;2023-10-31T07:05:03;98620.88;;;13.98
70668;BMP280;58242;51.250;-1.118;2023-10-31T07:07:29;98620.13;;;13.97
70668;BMP280;58242;51.250;-1.118;2023-10-31T07:09:54;98624.72;;;13.97
70668;BMP280;58242;51.250;-1.118;2023-10-31T07:12:20;98630.84;;;13.97
70668;BMP280;58242;51.250;-1.118;2023-10-31T07:14:45;98637.38;;;14.00
70668;BMP280;58242;51.250;-1.118;2023-10-31T07:17:10;98633.94;;;14.02
70668;BMP280;58242;51.250;-1.118;2023-10-31T07:19:36;98631.66;;;14.04
70668;BMP280;58242;51.250;-1.118;2023-10-31T07:22:02;98641.63;;;14.07
70668;BMP280;58242;51.250;-1.118;2023-10-31T07:24:27;98638.94;;;14.07
70668;BMP280;58242;51.250;-1.118;2023-10-31T07:26:53;98637.81;;;14.08
70668;BMP280;58242;51.250;-1.118;2023-10-31T07:29:19;98636.66;;;14.09
70668;BMP280;58242;51.250;-1.118;2023-10-31T07:31:44;98638.19;;;14.10
70668;BMP280;58242;51.250;-1.118;2023-10-31T07:34:09;98643.19;;;14.12
70668;BMP280;58242;51.250;-1.118;2023-10-31T07:36:36;98649.34;;;14.16
70668;BMP280;58242;51.250;-1.118;2023-10-31T07:39:02;98647.81;;;14.21
70668;BMP280;58242;51.250;-1.118;2023-10-31T07:41:29;98647.84;;;14.28
70668;BMP280;58242;51.250;-1.118;2023-10-31T07:43:54;98647.09;;;14.35
70668;BMP280;58242;51.250;-1.118;2023-10-31T07:46:19;98644.81;;;14.43
70668;BMP280;58242;51.250;-1.118;2023-10-31T07:48:45;98650.59;;;14.52
70668;BMP280;58242;51.250;-1.118;2023-10-31T07:51:10;98658.28;;;14.60
70668;BMP280;58242;51.250;-1.118;2023-10-31T07:53:35;98658.69;;;14.69
70668;BMP280;58242;51.250;-1.118;2023-10-31T07:56:01;98664.09;;;14.86
70668;BMP280;58242;51.250;-1.118;2023-10-31T07:58:26;98657.22;;;15.06
70668;BMP280;58242;51.250;-1.118;2023-10-31T08:00:51;98663.75;;;15.28
70668;BMP280;58242;51.250;-1.118;2023-10-31T08:03:17;98664.84;;;15.51
70668;BMP280;58242;51.250;-1.118;2023-10-31T08:05:42;98660.94;;;15.73
70668;BMP280;58242;51.250;-1.118;2023-10-31T08:08:07;98654.78;;;15.92
70668;BMP280;58242;51.250;-1.118;2023-10-31T08:10:33;98652.78;;;16.07
70668;BMP280;58242;51.250;-1.118;2023-10-31T08:12:59;98660.03;;;16.23
70668;BMP280;58242;51.250;-1.118;2023-10-31T08:15:25;98652.25;;;16.39
70668;BMP280;58242;51.250;-1.118;2023-10-31T08:17:50;98657.53;;;16.56
70668;BMP280;58242;51.250;-1.118;2023-10-31T08:20:16;98663.97;;;16.75
70668;BMP280;58242;51.250;-1.118;2023-10-31T08:22:41;98656.53;;;16.93
70668;BMP280;58242;51.250;-1.118;2023-10-31T08:25:08;98654.50;;;17.10
70668;BMP280;58242;51.250;-1.118;2023-10-31T08:27:34;98659.38;;;17.25
70668;BMP280;58242;51.250;-1.118;2023-10-31T08:29:59;98664.66;;;17.39
70668;BMP280;58242;51.250;-1.118;2023-10-31T08:32:24;98664.00;;;17.67
70668;BMP280;58242;51.250;-1.118;2023-10-31T08:34:50;98670.63;;;18.28
70668;BMP280;58242;51.250;-1.118;2023-10-31T08:37:15;98672.72;;;19.01
70668;BMP280;58242;51.250;-1.118;2023-10-31T08:39:40;98669.44;;;19.80
70668;BMP280;58242;51.250;-1.118;2023-10-31T08:42:06;98675.66;;;20.56
70668;BMP280;58242;51.250;-1.118;2023-10-31T08:44:31;98678.34;;;21.25
70668;BMP280;58242;51.250;-1.118;2023-10-31T08:46:58;98673.31;;;21.98
70668;BMP280;58242;51.250;-1.118;2023-10-31T08:49:23;98670.81;;;22.59
70668;BMP280;58242;51.250;-1.118;2023-10-31T08:51:49;98675.78;;;23.25
70668;BMP280;58242;51.250;-1.118;2023-10-31T08:54:14;98671.03;;;23.95
70668;BMP280;58242;51.250;-1.118;2023-10-31T08:56:39;98673.22;;;24.62
70668;BMP280;58242;51.250;-1.118;2023-10-31T08:59:05;98678.44;;;25.07
70668;BMP280;58242;51.250;-1.118;2023-10-31T09:01:30;98686.59;;;25.20
70668;BMP280;58242;51.250;-1.118;2023-10-31T09:03:55;98682.38;;;25.06
70668;BMP280;58242;51.250;-1.118;2023-10-31T09:06:21;98684.13;;;24.83
70668;BMP280;58242;51.250;-1.118;2023-10-31T09:08:46;98696.66;;;24.51
70668;BMP280;58242;51.250;-1.118;2023-10-31T09:11:11;98691.03;;;24.13
70668;BMP280;58242;51.250;-1.118;2023-10-31T09:13:37;98694.78;;;23.73
70668;BMP280;58242;51.250;-1.118;2023-10-31T09:16:02;98688.72;;;23.33
70668;BMP280;58242;51.250;-1.118;2023-10-31T09:18:28;98694.69;;;22.92
70668;BMP280;58242;51.250;-1.118;2023-10-31T09:20:53;98692.03;;;22.52
70668;BMP280;58242;51.250;-1.118;2023-10-31T09:23:19;98688.41;;;22.15
70668;BMP280;58242;51.250;-1.118;2023-10-31T09:25:44;98693.63;;;21.82
70668;BMP280;58242;51.250;-1.118;2023-10-31T09:28:10;98696.34;;;21.51
70668;BMP280;58242;51.250;-1.118;2023-10-31T09:30:35;98695.47;;;21.23
70668;BMP280;58242;51.250;-1.118;2023-10-31T09:33:01;98690.69;;;20.95
70668;BMP280;58242;51.250;-1.118;2023-10-31T09:35:26;98697.75;;;20.74
70668;BMP280;58242;51.250;-1.118;2023-10-31T09:37:52;98702.44;;;20.55
70668;BMP280;58242;51.250;-1.118;2023-10-31T09:40:18;98701.50;;;20.45
70668;BMP280;58242;51.250;-1.118;2023-10-31T09:42:47;98703.28;;;20.52
70668;BMP280;58242;51.250;-1.118;2023-10-31T09:45:13;98704.06;;;20.87
70668;BMP280;58242;51.250;-1.118;2023-10-31T09:47:39;98700.81;;;21.57
70668;BMP280;58242;51.250;-1.118;2023-10-31T09:50:05;98702.16;;;22.24
70668;BMP280;58242;51.250;-1.118;2023-10-31T09:52:32;98697.81;;;22.54
70668;BMP280;58242;51.250;-1.118;2023-10-31T09:54:58;98702.97;;;22.64
70668;BMP280;58242;51.250;-1.118;2023-10-31T09:57:24;98701.19;;;22.58
70668;BMP280;58242;51.250;-1.118;2023-10-31T09:59:51;98702.75;;;22.43
70668;BMP280;58242;51.250;-1.118;2023-10-31T10:02:17;98708.25;;;22.27
70668;BMP280;58242;51.250;-1.118;2023-10-31T10:04:42;98706.28;;;22.16
70668;BMP280;58242;51.250;-1.118;2023-10-31T10:07:07;98717.34;;;22.09
70668;BMP280;58242;51.250;-1.118;2023-10-31T10:09:33;98718.41;;;21.99
70668;BMP280;58242;51.250;-1.118;2023-10-31T10:11:59;98725.97;;;21.92
70668;BMP280;58242;51.250;-1.118;2023-10-31T10:14:26;98724.88;;;21.90
70668;BMP280;58242;51.250;-1.118;2023-10-31T10:16:56;98721.56;;;21.82
70668;BMP280;58242;51.250;-1.118;2023-10-31T10:19:23;98726.16;;;21.70
70668;BMP280;58242;51.250;-1.118;2023-10-31T10:21:50;98735.84;;;21.55
70668;BMP280;58242;51.250;-1.118;2023-10-31T10:24:17;98735.94;;;21.36
70668;BMP280;58242;51.250;-1.118;2023-10-31T10:26:42;98740.22;;;21.18
70668;BMP280;58242;51.250;-1.118;2023-10-31T10:29:08;98743.22;;;21.05
70668;BMP280;58242;51.250;-1.118;2023-10-31T10:31:33;98740.00;;;20.94
70668;BMP280;58242;51.250;-1.118;2023-10-31T10:33:58;98740.16;;;20.87
70668;BMP280;58242;51.250;-1.118;2023-10-31T10:36:26;98743.03;;;20.80
70668;BMP280;58242;51.250;-1.118;2023-10-31T10:38:56;98747.00;;;20.76
70668;BMP280;58242;51.250;-1.118;2023-10-31T10:41:24;98742.03;;;20.71
70668;BMP280;58242;51.250;-1.118;2023-10-31T10:43:55;98743.03;;;20.80
70668;BMP280;58242;51.250;-1.118;2023-10-31T10:46:24;98748.47;;;20.96
70668;BMP280;58242;51.250;-1.118;2023-10-31T10:48:54;98751.19;;;20.96
70668;BMP280;58242;51.250;-1.118;2023-10-31T10:51:25;98753.56;;;20.94
70668;BMP280;58242;51.250;-1.118;2023-10-31T10:54:19;98760.75;;;20.85
70668;BMP280;58242;51.250;-1.118;2023-10-31T10:56:59;98762.06;;;20.77
70668;BMP280;58242;51.250;-1.118;2023-10-31T10:59:55;98757.97;;;20.69
70668;BMP280;58242;51.250;-1.118;2023-10-31T11:02:22;98761.97;;;20.65
70668;BMP280;58242;51.250;-1.118;2023-10-31T11:04:48;98754.84;;;20.71
70668;BMP280;58242;51.250;-1.118;2023-10-31T11:07:16;98762.38;;;20.82
70668;BMP280;58242;51.250;-1.118;2023-10-31T11:09:44;98768.63;;;20.98
70668;BMP280;58242;51.250;-1.118;2023-10-31T11:12:10;98765.13;;;21.17
70668;BMP280;58242;51.250;-1.118;2023-10-31T11:14:37;98766.00;;;21.29
70668;BMP280;58242;51.250;-1.118;2023-10-31T11:17:09;98760.72;;;21.38
70668;BMP280;58242;51.250;-1.118;2023-10-31T11:19:35;98766.00;;;21.45
70668;BMP280;58242;51.250;-1.118;2023-10-31T11:22:02;98761.69;;;21.47
70668;BMP280;58242;51.250;-1.118;2023-10-31T11:24:28;98770.25;;;21.46
70668;BMP280;58242;51.250;-1.118;2023-10-31T11:26:59;98770.69;;;21.44
70668;BMP280;58242;51.250;-1.118;2023-10-31T11:29:24;98772.09;;;21.33
70668;BMP280;58242;51.250;-1.118;2023-10-31T11:31:51;98765.84;;;21.36
70668;BMP280;58242;51.250;-1.118;2023-10-31T11:34:17;98763.69;;;21.28
70668;BMP280;58242;51.250;-1.118;2023-10-31T11:36:45;98763.59;;;21.16
70668;BMP280;58242;51.250;-1.118;2023-10-31T11:39:18;98761.16;;;21.02
70668;BMP280;58242;51.250;-1.118;2023-10-31T11:41:50;98754.50;;;20.88
70668;BMP280;58242;51.250;-1.118;2023-10-31T11:44:16;98758.13;;;20.81
70668;BMP280;58242;51.250;-1.118;2023-10-31T11:46:42;98761.09;;;20.87
70668;BMP280;58242;51.250;-1.118;2023-10-31T11:49:07;98758.84;;;21.20
70668;BMP280;58242;51.250;-1.118;2023-10-31T11:51:33;98756.41;;;21.87
70668;BMP280;58242;51.250;-1.118;2023-10-31T11:54:02;98758.06;;;22.56
70668;BMP280;58242;51.250;-1.118;2023-10-31T11:56:27;98749.84;;;22.83
70668;BMP280;58242;51.250;-1.118;2023-10-31T11:59:00;98748.44;;;22.79
70668;BMP280;58242;51.250;-1.118;2023-10-31T12:01:26;98765.59;;;22.64
70668;BMP280;58242;51.250;-1.118;2023-10-31T12:03:51;98770.59;;;22.53
70668;BMP280;58242;51.250;-1.118;2023-10-31T12:06:17;98773.66;;;22.40
70668;BMP280;58242;51.250;-1.118;2023-10-31T12:08:45;98779.03;;;22.27
70668;BMP280;58242;51.250;-1.118;2023-10-31T12:11:13;98777.56;;;22.11
70668;BMP280;58242;51.250;-1.118;2023-10-31T12:13:40;98768.22;;;21.96
70668;BMP280;58242;51.250;-1.118;2023-10-31T12:16:08;98768.56;;;21.83
70668;BMP280;58242;51.250;-1.118;2023-10-31T12:18:34;98769.16;;;21.75
70668;BMP280;58242;51.250;-1.118;2023-10-31T12:21:00;98764.06;;;21.76
70668;BMP280;58242;51.250;-1.118;2023-10-31T12:23:26;98760.56;;;21.76
70668;BMP280;58242;51.250;-1.118;2023-10-31T12:25:52;98771.13;;;21.74
70668;BMP280;58242;51.250;-1.118;2023-10-31T12:28:22;98774.34;;;21.69
70668;BMP280;58242;51.250;-1.118;2023-10-31T12:30:48;98775.44;;;21.56
70668;BMP280;58242;51.250;-1.118;2023-10-31T12:33:15;98771.09;;;21.43
70668;BMP280;58242;51.250;-1.118;2023-10-31T12:35:41;98778.28;;;21.34
70668;BMP280;58242;51.250;-1.118;2023-10-31T12:38:07;98776.50;;;21.27
70668;BMP280;58242;51.250;-1.118;2023-10-31T12:40:34;98770.59;;;21.32
70668;BMP280;58242;51.250;-1.118;2023-10-31T12:43:00;98778.97;;;21.38
70668;BMP280;58242;51.250;-1.118;2023-10-31T12:45:27;98778.66;;;21.36
70668;BMP280;58242;51.250;-1.118;2023-10-31T12:48:08;98777.00;;;21.23
70668;BMP280;58242;51.250;-1.118;2023-10-31T12:50:35;98770.72;;;21.10
70668;BMP280;58242;51.250;-1.118;2023-10-31T12:53:06;98777.47;;;21.02
70668;BMP280;58242;51.250;-1.118;2023-10-31T12:55:39;98773.63;;;21.00
70668;BMP280;58242;51.250;-1.118;2023-10-31T12:58:04;98784.00;;;21.05
70668;BMP280;58242;51.250;-1.118;2023-10-31T13:00:32;98773.28;;;21.17
70668;BMP280;58242;51.250;-1.118;2023-10-31T13:03:04;98780.69;;;21.32
70668;BMP280;58242;51.250;-1.118;2023-10-31T13:05:30;98786.06;;;21.51
70668;BMP280;58242;51.250;-1.118;2023-10-31T13:07:57;98781.72;;;21.69
70668;BMP280;58242;51.250;-1.118;2023-10-31T13:10:27;98792.63;;;22.00
70668;BMP280;58242;51.250;-1.118;2023-10-31T13:12:53;98791.94;;;22.39
70668;BMP280;58242;51.250;-1.118;2023-10-31T13:15:22;98788.28;;;22.73
70668;BMP280;58242;51.250;-1.118;2023-10-31T13:17:49;98787.56;;;22.85
70668;BMP280;58242;51.250;-1.118;2023-10-31T13:20:18;98794.44;;;22.89
70668;BMP280;58242;51.250;-1.118;2023-10-31T13:22:43;98790.06;;;22.92
70668;BMP280;58242;51.250;-1.118;2023-10-31T13:25:11;98772.56;;;23.17
70668;BMP280;58242;51.250;-1.118;2023-10-31T13:27:37;98779.69;;;23.63
70668;BMP280;58242;51.250;-1.118;2023-10-31T13:30:04;98787.44;;;23.89
70668;BMP280;58242;51.250;-1.118;2023-10-31T13:32:29;98776.28;;;23.96
70668;BMP280;58242;51.250;-1.118;2023-10-31T13:34:55;98785.31;;;24.05
70668;BMP280;58242;51.250;-1.118;2023-10-31T13:37:20;98780.97;;;24.28
70668;BMP280;58242;51.250;-1.118;2023-10-31T13:39:46;98784.03;;;24.63
70668;BMP280;58242;51.250;-1.118;2023-10-31T13:42:11;98779.59;;;24.99
70668;BMP280;58242;51.250;-1.118;2023-10-31T13:44:37;98780.25;;;25.11
70668;BMP280;58242;51.250;-1.118;2023-10-31T13:47:03;98779.31;;;25.05
70668;BMP280;58242;51.250;-1.118;2023-10-31T13:49:29;98778.75;;;24.89